createdAt,value
2022-10-21T00:01:05.554Z,9.08
2022-10-21T00:03:33.827Z,9.26
2022-10-21T00:06:02.380Z,9.25
2022-10-21T00:08:30.592Z,9.03
2022-10-21T00:11:01.380Z,8.80
2022-10-21T00:13:33.223Z,8.79
2022-10-21T00:16:03.135Z,8.94
2022-10-21T00:18:32.514Z,8.74
2022-10-21T00:21:00.456Z,8.93
2022-10-21T00:23:28.910Z,8.92
2022-10-21T00:26:00.548Z,8.80
2022-10-21T00:28:30.462Z,8.92
2022-10-21T00:30:59.066Z,8.97
2022-10-21T00:33:28.504Z,8.87
2022-10-21T00:35:58.903Z,8.86
2022-10-21T00:38:27.542Z,8.61
2022-10-21T00:40:55.863Z,8.82
2022-10-21T00:43:24.537Z,8.89
2022-10-21T00:45:57.355Z,8.93
2022-10-21T00:48:33.074Z,8.85
2022-10-21T00:51:05.144Z,8.75
2022-10-21T00:53:35.072Z,8.44
2022-10-21T00:56:07.508Z,8.47
2022-10-21T00:58:37.495Z,8.63
2022-10-21T01:01:09.768Z,8.58
2022-10-21T01:03:37.926Z,8.90
2022-10-21T01:06:10.180Z,8.79
2022-10-21T01:08:38.747Z,8.80
2022-10-21T01:11:12.066Z,8.88
2022-10-21T01:13:52.184Z,8.69
2022-10-21T01:16:32.839Z,8.69
2022-10-21T01:19:08.341Z,8.62
2022-10-21T01:21:41.268Z,8.39
2022-10-21T01:24:37.622Z,8.56
2022-10-21T01:27:23.113Z,8.55
2022-10-21T01:30:16.110Z,8.46
2022-10-21T01:33:22.109Z,8.34
2022-10-21T01:35:57.482Z,8.48
2022-10-21T01:38:35.507Z,8.46
2022-10-21T01:41:11.505Z,8.26
2022-10-21T01:43:47.364Z,8.21
2022-10-21T01:46:19.382Z,8.11
2022-10-21T01:48:52.320Z,8.19
2022-10-21T01:51:21.918Z,8.36
2022-10-21T01:53:54.587Z,8.19
2022-10-21T01:56:24.499Z,8.32
2022-10-21T01:58:54.617Z,8.22
2022-10-21T02:01:24.216Z,8.40
2022-10-21T02:03:58.863Z,8.25
2022-10-21T02:06:26.995Z,8.11
2022-10-21T02:08:55.143Z,8.22
2022-10-21T02:11:23.868Z,8.24
2022-10-21T02:13:57.622Z,8.18
2022-10-21T02:16:30.377Z,8.33
2022-10-21T02:19:01.775Z,8.31
2022-10-21T02:21:32.435Z,8.48
2022-10-21T02:24:06.406Z,8.46
2022-10-21T02:26:34.387Z,8.26
2022-10-21T02:29:02.871Z,8.24
2022-10-21T02:31:49.875Z,8.23
2022-10-21T02:34:31.390Z,8.31
2022-10-21T02:37:09.795Z,8.17
2022-10-21T02:39:44.560Z,8.15
2022-10-21T02:42:17.955Z,8.07
2022-10-21T02:44:45.884Z,7.93
2022-10-21T02:47:14.013Z,8.21
2022-10-21T02:49:44.923Z,8.32
2022-10-21T02:52:13.030Z,8.20
2022-10-21T02:54:41.060Z,8.18
2022-10-21T02:57:09.063Z,8.15
2022-10-21T02:59:37.114Z,8.01
2022-10-21T03:02:05.758Z,7.81
2022-10-21T03:04:33.942Z,7.77
2022-10-21T03:07:03.644Z,7.67
2022-10-21T03:09:32.014Z,7.86
2022-10-21T03:12:00.012Z,7.95
2022-10-21T03:14:28.328Z,7.86
2022-10-21T03:16:56.418Z,7.55
2022-10-21T03:19:24.329Z,7.67
2022-10-21T03:21:52.418Z,7.47
2022-10-21T03:24:28.796Z,7.63
2022-10-21T03:26:57.626Z,7.58
2022-10-21T03:29:26.128Z,7.73
2022-10-21T03:31:54.406Z,7.70
2022-10-21T03:34:22.413Z,7.83
2022-10-21T03:36:50.629Z,7.79
2022-10-21T03:39:18.685Z,7.74
2022-10-21T03:41:48.173Z,7.61
2022-10-21T03:44:16.193Z,7.72
2022-10-21T03:46:44.113Z,7.76
2022-10-21T03:49:18.307Z,7.77
2022-10-21T03:51:49.414Z,7.78
2022-10-21T03:54:18.203Z,7.65
2022-10-21T03:56:48.259Z,7.36
2022-10-21T03:59:16.666Z,7.51
2022-10-21T04:01:45.172Z,7.43
2022-10-21T04:04:13.345Z,7.47
2022-10-21T04:06:41.719Z,7.42
2022-10-21T04:09:09.718Z,7.44
2022-10-21T04:11:37.991Z,7.48
2022-10-21T04:14:11.445Z,7.47
2022-10-21T04:16:43.174Z,7.42
2022-10-21T04:19:17.585Z,7.38
2022-10-21T04:21:46.136Z,7.21
2022-10-21T04:24:14.883Z,7.28
2022-10-21T04:26:43.234Z,7.27
2022-10-21T04:29:12.867Z,7.21
2022-10-21T04:31:41.191Z,6.89
2022-10-21T04:34:09.319Z,6.71
2022-10-21T04:36:37.314Z,6.76
2022-10-21T04:39:05.888Z,6.94
2022-10-21T04:41:33.896Z,6.93
2022-10-21T04:44:02.811Z,6.97
2022-10-21T04:46:32.210Z,6.89
2022-10-21T04:49:00.467Z,6.88
2022-10-21T04:51:28.793Z,6.95
2022-10-21T04:53:57.197Z,6.85
2022-10-21T04:56:25.212Z,6.84
2022-10-21T04:58:53.304Z,6.88
2022-10-21T05:01:21.445Z,6.96
2022-10-21T05:03:51.031Z,6.98
2022-10-21T05:06:19.019Z,6.92
2022-10-21T05:08:47.052Z,6.80
2022-10-21T05:11:15.367Z,6.77
2022-10-21T05:13:43.426Z,6.75
2022-10-21T05:16:11.357Z,6.68
2022-10-21T05:18:39.306Z,6.71
2022-10-21T05:21:08.789Z,6.33
2022-10-21T05:23:36.757Z,6.47
2022-10-21T05:26:04.895Z,6.61
2022-10-21T05:28:32.887Z,6.76
2022-10-21T05:31:01.058Z,6.91
2022-10-21T05:33:29.290Z,6.93
2022-10-21T05:35:58.879Z,7.04
2022-10-21T05:38:28.675Z,6.78
2022-10-21T05:40:56.858Z,6.94
2022-10-21T05:43:25.438Z,7.19
2022-10-21T05:45:53.470Z,7.23
2022-10-21T05:48:21.406Z,7.41
2022-10-21T05:50:52.422Z,7.49
2022-10-21T05:53:20.625Z,7.47
2022-10-21T05:55:57.484Z,7.41
2022-10-21T05:58:26.272Z,7.21
2022-10-21T06:00:55.488Z,7.39
2022-10-21T06:03:23.947Z,7.49
2022-10-21T06:05:52.078Z,7.69
2022-10-21T06:08:20.340Z,7.51
2022-10-21T06:10:48.298Z,7.77
2022-10-21T06:13:17.735Z,7.69
2022-10-21T06:15:48.839Z,7.96
2022-10-21T06:18:19.002Z,8.07
2022-10-21T06:20:47.334Z,8.17
2022-10-21T06:23:16.435Z,8.15
2022-10-21T06:25:45.176Z,8.23
2022-10-21T06:28:13.487Z,8.27
2022-10-21T06:30:43.014Z,8.37
2022-10-21T06:33:11.394Z,8.52
2022-10-21T06:35:39.557Z,8.57
2022-10-21T06:38:07.673Z,8.93
2022-10-21T06:40:35.776Z,8.71
2022-10-21T06:43:03.846Z,9.11
2022-10-21T06:45:31.865Z,9.05
2022-10-21T06:48:01.630Z,9.17
2022-10-21T06:50:29.842Z,8.74
2022-10-21T06:52:57.969Z,9.08
2022-10-21T06:55:25.978Z,8.99
2022-10-21T06:57:54.071Z,9.15
2022-10-21T07:00:22.274Z,9.60
2022-10-21T07:02:50.623Z,9.89
2022-10-21T07:05:20.854Z,10.09
2022-10-21T07:07:48.954Z,10.40
2022-10-21T07:10:17.214Z,10.47
2022-10-21T07:12:46.808Z,10.75
2022-10-21T07:15:14.922Z,10.70
2022-10-21T07:17:43.010Z,10.58
2022-10-21T07:20:11.751Z,10.83
2022-10-21T07:22:41.180Z,10.77
2022-10-21T07:25:09.725Z,10.83
2022-10-21T07:27:38.254Z,10.90
2022-10-21T07:30:06.987Z,10.97
2022-10-21T07:32:35.436Z,11.07
2022-10-21T07:35:03.866Z,11.24
2022-10-21T07:37:31.874Z,11.45
2022-10-21T07:40:01.646Z,11.63
2022-10-21T07:42:30.281Z,11.62
2022-10-21T07:45:01.324Z,11.61
2022-10-21T07:47:29.537Z,11.72
2022-10-21T07:49:57.853Z,11.88
2022-10-21T07:52:26.042Z,12.13
2022-10-21T07:54:54.263Z,11.93
2022-10-21T07:57:24.239Z,12.25
2022-10-21T07:59:52.331Z,12.35
2022-10-21T08:02:21.021Z,12.40
2022-10-21T08:04:49.086Z,12.69
2022-10-21T08:07:17.063Z,12.92
2022-10-21T08:09:45.052Z,13.14
2022-10-21T08:12:15.268Z,13.16
2022-10-21T08:14:45.117Z,13.30
2022-10-21T08:17:13.267Z,13.55
2022-10-21T08:19:41.693Z,13.64
2022-10-21T08:22:10.011Z,13.61
2022-10-21T08:24:41.398Z,13.62
2022-10-21T08:27:10.597Z,13.87
2022-10-21T08:29:40.070Z,13.76
2022-10-21T08:32:10.346Z,13.75
2022-10-21T08:34:38.435Z,13.93
2022-10-21T08:37:06.506Z,14.11
2022-10-21T08:39:34.491Z,14.32
2022-10-21T08:42:08.757Z,14.40
2022-10-21T08:44:46.120Z,14.78
2022-10-21T08:47:23.541Z,14.72
2022-10-21T08:49:58.054Z,14.95
2022-10-21T08:52:32.540Z,14.90
2022-10-21T08:55:03.033Z,14.94
2022-10-21T08:57:34.706Z,14.80
2022-10-21T09:00:03.816Z,15.13
2022-10-21T09:03:00.341Z,15.22
2022-10-21T09:05:47.084Z,15.24
2022-10-21T09:08:24.492Z,15.26
2022-10-21T09:11:03.695Z,15.55
2022-10-21T09:13:57.130Z,15.69
2022-10-21T09:16:34.817Z,15.81
2022-10-21T09:19:17.588Z,15.40
2022-10-21T09:22:16.350Z,15.55
2022-10-21T09:24:53.870Z,15.77
2022-10-21T09:27:32.337Z,15.82
2022-10-21T09:30:17.830Z,15.94
2022-10-21T09:32:50.866Z,15.87
2022-10-21T09:35:32.062Z,16.09
2022-10-21T09:38:04.801Z,16.24
2022-10-21T09:40:34.144Z,16.19
2022-10-21T09:43:02.712Z,16.14
2022-10-21T09:45:35.318Z,16.13
2022-10-21T09:48:06.636Z,16.22
2022-10-21T09:50:37.134Z,16.42
2022-10-21T09:53:10.753Z,16.34
2022-10-21T09:55:40.819Z,16.07
2022-10-21T09:58:09.532Z,16.22
2022-10-21T10:00:44.066Z,16.18
2022-10-21T10:03:12.232Z,16.33
2022-10-21T10:05:48.273Z,16.52
2022-10-21T10:08:30.613Z,16.21
2022-10-21T10:11:15.595Z,16.07
2022-10-21T10:13:46.201Z,16.37
2022-10-21T10:16:17.773Z,16.37
2022-10-21T10:18:46.778Z,16.33
2022-10-21T10:21:17.889Z,16.40
2022-10-21T10:23:51.042Z,16.56
2022-10-21T10:26:27.719Z,16.71
2022-10-21T10:28:58.766Z,16.63
2022-10-21T10:31:33.696Z,16.65
2022-10-21T10:34:05.103Z,16.63
2022-10-21T10:36:37.839Z,16.81
2022-10-21T10:39:09.506Z,16.59
2022-10-21T10:41:40.757Z,16.67
2022-10-21T10:44:23.899Z,16.64
2022-10-21T10:46:56.899Z,16.64
2022-10-21T10:49:26.435Z,16.64
2022-10-21T10:52:21.236Z,16.66
2022-10-21T10:54:50.312Z,16.83
2022-10-21T10:57:26.531Z,17.03
2022-10-21T11:00:07.209Z,16.87
2022-10-21T11:02:42.585Z,16.88
2022-10-21T11:05:20.495Z,16.91
2022-10-21T11:07:53.050Z,16.95
2022-10-21T11:10:46.475Z,16.74
2022-10-21T11:13:17.891Z,16.90
2022-10-21T11:15:57.998Z,17.02
2022-10-21T11:18:34.810Z,17.17
2022-10-21T11:21:15.742Z,17.24
2022-10-21T11:24:06.555Z,17.17
2022-10-21T11:26:46.572Z,17.31
2022-10-21T11:29:29.508Z,17.48
2022-10-21T11:32:12.361Z,17.55
2022-10-21T11:34:51.820Z,17.38
2022-10-21T11:37:34.963Z,17.62
2022-10-21T11:40:19.207Z,17.71
2022-10-21T11:42:50.102Z,17.73
2022-10-21T11:45:36.714Z,17.49
2022-10-21T11:48:16.478Z,17.45
2022-10-21T11:50:51.823Z,17.52
2022-10-21T11:53:33.551Z,17.35
2022-10-21T11:56:14.642Z,17.08
2022-10-21T11:58:53.559Z,16.87
2022-10-21T12:01:31.416Z,17.02
2022-10-21T12:04:21.690Z,17.05
2022-10-21T12:06:59.028Z,17.18
2022-10-21T12:09:33.987Z,17.36
2022-10-21T12:12:07.968Z,17.27
2022-10-21T12:14:41.225Z,17.11
2022-10-21T12:17:14.574Z,16.99
2022-10-21T12:19:46.017Z,16.91
2022-10-21T12:22:15.013Z,16.86
2022-10-21T12:24:51.308Z,17.09
2022-10-21T12:27:26.830Z,16.76
2022-10-21T12:30:04.339Z,17.02
2022-10-21T12:32:41.351Z,16.99
2022-10-21T12:35:14.412Z,17.04
2022-10-21T12:38:05.619Z,17.03
2022-10-21T12:40:40.097Z,16.99
2022-10-21T12:43:20.014Z,17.04
2022-10-21T12:46:02.207Z,16.88
2022-10-21T12:48:35.158Z,16.80
2022-10-21T12:51:07.039Z,16.94
2022-10-21T12:53:41.921Z,16.84
2022-10-21T12:56:12.224Z,16.92
2022-10-21T12:58:46.319Z,16.91
2022-10-21T13:01:38.924Z,16.73
2022-10-21T13:04:27.547Z,16.90
2022-10-21T13:06:57.464Z,16.81
2022-10-21T13:09:41.309Z,16.70
2022-10-21T13:12:18.647Z,16.74
2022-10-21T13:14:50.534Z,16.56
2022-10-21T13:17:55.072Z,16.67
2022-10-21T13:20:58.747Z,16.76
2022-10-21T13:23:38.722Z,16.55
2022-10-21T13:26:24.297Z,16.61
2022-10-21T13:29:06.907Z,16.44
2022-10-21T13:31:36.524Z,16.48
2022-10-21T13:34:05.642Z,16.22
2022-10-21T13:36:42.891Z,16.26
2022-10-21T13:39:27.308Z,16.27
2022-10-21T13:42:02.134Z,16.25
2022-10-21T13:44:35.916Z,16.17
2022-10-21T13:47:26.938Z,16.39
2022-10-21T13:49:57.072Z,16.15
2022-10-21T13:52:29.093Z,15.99
2022-10-21T13:55:01.158Z,16.03
2022-10-21T13:57:33.852Z,15.85
2022-10-21T14:00:03.236Z,15.87
2022-10-21T14:02:32.833Z,15.72
2022-10-21T14:05:01.213Z,15.54
2022-10-21T14:07:30.046Z,15.50
2022-10-21T14:10:00.180Z,15.41
2022-10-21T14:12:32.925Z,15.12
2022-10-21T14:15:06.604Z,15.32
2022-10-21T14:17:41.853Z,15.32
2022-10-21T14:20:17.339Z,15.12
2022-10-21T14:22:49.932Z,14.88
2022-10-21T14:25:20.230Z,14.63
2022-10-21T14:27:49.036Z,14.56
2022-10-21T14:30:22.459Z,14.47
2022-10-21T14:32:54.403Z,14.43
2022-10-21T14:35:28.816Z,14.53
2022-10-21T14:37:58.679Z,14.42
2022-10-21T14:40:32.292Z,14.42
2022-10-21T14:43:02.246Z,14.36
2022-10-21T14:45:33.402Z,14.27
2022-10-21T14:48:25.236Z,14.40
2022-10-21T14:50:55.249Z,14.45
2022-10-21T14:53:25.599Z,14.63
2022-10-21T14:55:57.229Z,14.67
2022-10-21T14:58:30.132Z,14.81
2022-10-21T15:01:00.215Z,14.82
2022-10-21T15:03:41.160Z,14.82
2022-10-21T15:06:11.914Z,14.84
2022-10-21T15:08:42.528Z,14.88
2022-10-21T15:11:35.774Z,14.85
2022-10-21T15:14:22.288Z,14.79
2022-10-21T15:16:54.459Z,14.71
2022-10-21T15:19:27.463Z,14.58
2022-10-21T15:21:59.353Z,14.52
2022-10-21T15:24:36.723Z,14.36
2022-10-21T15:27:06.032Z,14.36
2022-10-21T15:29:38.615Z,14.29
2022-10-21T15:32:07.672Z,14.16
2022-10-21T15:34:37.271Z,14.06
2022-10-21T15:37:07.451Z,13.93
2022-10-21T15:39:35.800Z,13.81
2022-10-21T15:42:03.873Z,13.69
2022-10-21T15:44:33.759Z,13.53
2022-10-21T15:47:05.745Z,13.41
2022-10-21T15:49:38.105Z,13.30
2022-10-21T15:52:06.782Z,13.19
2022-10-21T15:54:35.650Z,12.97
2022-10-21T15:57:09.191Z,12.89
2022-10-21T15:59:37.884Z,12.81
2022-10-21T16:04:40.828Z,12.57
2022-10-21T16:07:19.154Z,12.52
2022-10-21T16:09:47.451Z,12.40
2022-10-21T16:12:17.689Z,12.29
2022-10-21T16:14:45.998Z,12.18
2022-10-21T16:17:14.833Z,12.10
2022-10-21T16:19:44.291Z,12.00
2022-10-21T16:22:17.171Z,11.91
2022-10-21T16:24:45.223Z,11.67
2022-10-21T16:27:14.527Z,11.71
2022-10-21T16:29:48.093Z,11.63
2022-10-21T16:32:16.095Z,11.56
2022-10-21T16:34:45.464Z,11.49
2022-10-21T16:37:24.347Z,11.36
2022-10-21T16:39:52.359Z,11.27
2022-10-21T16:42:20.308Z,11.16
2022-10-21T16:44:49.903Z,11.11
2022-10-21T16:47:20.217Z,11.00
2022-10-21T16:49:50.535Z,10.88
2022-10-21T16:52:19.014Z,10.81
2022-10-21T16:54:48.860Z,10.76
2022-10-21T16:57:17.029Z,10.76
2022-10-21T16:59:45.251Z,10.70
2022-10-21T17:02:18.088Z,10.66
2022-10-21T17:04:47.184Z,10.53
2022-10-21T17:07:17.083Z,10.55
2022-10-21T17:09:45.027Z,10.53
2022-10-21T17:12:13.273Z,10.45
2022-10-21T17:14:41.445Z,10.38
2022-10-21T17:17:09.451Z,10.27
2022-10-21T17:19:37.795Z,10.27
2022-10-21T17:22:05.920Z,10.32
2022-10-21T17:24:35.244Z,10.37
2022-10-21T17:27:03.298Z,10.38
2022-10-21T17:29:31.454Z,10.34
2022-10-21T17:31:59.739Z,10.32
2022-10-21T17:34:30.216Z,10.25
2022-10-21T17:36:58.698Z,10.06
2022-10-21T17:39:27.058Z,10.03
2022-10-21T17:41:56.727Z,10.20
2022-10-21T17:44:24.900Z,10.18
2022-10-21T17:46:54.772Z,9.96
2022-10-21T17:49:23.232Z,9.76
2022-10-21T17:51:51.541Z,9.98
2022-10-21T17:54:24.143Z,10.18
2022-10-21T17:56:58.016Z,10.26
2022-10-21T17:59:26.907Z,10.33
2022-10-21T18:01:54.994Z,10.33
2022-10-21T18:04:23.174Z,10.31
2022-10-21T18:06:51.253Z,10.19
2022-10-21T18:09:19.414Z,10.10
2022-10-21T18:11:48.134Z,10.05
2022-10-21T18:14:17.834Z,10.00
2022-10-21T18:16:46.240Z,9.92
2022-10-21T18:19:14.602Z,9.83
2022-10-21T18:21:42.684Z,9.79
2022-10-21T18:24:12.674Z,9.73
2022-10-21T18:26:41.125Z,9.54
2022-10-21T18:29:09.652Z,9.54
2022-10-21T18:31:39.813Z,9.48
2022-10-21T18:34:09.474Z,9.43
2022-10-21T18:36:37.953Z,9.38
2022-10-21T18:39:06.881Z,9.29
2022-10-21T18:41:35.448Z,9.16
2022-10-21T18:44:08.369Z,9.06
2022-10-21T18:46:36.990Z,9.04
2022-10-21T18:49:08.240Z,8.96
2022-10-21T18:51:36.302Z,8.94
2022-10-21T18:54:05.330Z,8.88
2022-10-21T18:56:33.386Z,8.73
2022-10-21T18:59:01.791Z,8.72
2022-10-21T19:01:30.234Z,8.63
2022-10-21T19:03:58.933Z,8.42
2022-10-21T19:06:37.818Z,8.40
2022-10-21T19:09:09.936Z,8.55
2022-10-21T19:11:37.961Z,8.70
2022-10-21T19:14:08.464Z,8.75
2022-10-21T19:16:40.039Z,8.85
2022-10-21T19:19:09.298Z,8.86
2022-10-21T19:21:39.267Z,8.87
2022-10-21T19:24:08.135Z,8.86
2022-10-21T19:26:38.148Z,8.74
2022-10-21T19:29:08.160Z,8.64
2022-10-21T19:31:38.521Z,8.62
2022-10-21T19:34:07.068Z,8.70
2022-10-21T19:36:35.392Z,8.68
2022-10-21T19:39:05.414Z,8.62
2022-10-21T19:41:33.366Z,8.90
2022-10-21T19:44:01.576Z,8.96
2022-10-21T19:46:31.283Z,8.86
2022-10-21T19:49:01.430Z,9.19
2022-10-21T19:51:29.390Z,9.28
2022-10-21T19:53:57.858Z,9.30
2022-10-21T19:56:32.000Z,9.32
2022-10-21T19:59:02.941Z,9.40
2022-10-21T20:01:31.961Z,9.44
2022-10-21T20:04:02.084Z,9.53
2022-10-21T20:06:32.086Z,9.79
2022-10-21T20:09:02.388Z,9.81
2022-10-21T20:11:32.278Z,9.92
2022-10-21T20:14:00.442Z,9.95
2022-10-21T20:16:30.858Z,10.01
2022-10-21T20:18:59.354Z,10.03
2022-10-21T20:21:28.329Z,10.09
2022-10-21T20:23:58.055Z,9.90
2022-10-21T20:26:26.682Z,10.00
2022-10-21T20:28:56.342Z,10.03
2022-10-21T20:31:25.222Z,10.01
2022-10-21T20:33:53.744Z,10.00
2022-10-21T20:36:23.927Z,10.05
2022-10-21T20:38:53.285Z,10.07
2022-10-21T20:41:23.172Z,9.95
2022-10-21T20:43:52.362Z,10.01
2022-10-21T20:46:24.654Z,10.04
2022-10-21T20:48:54.480Z,10.09
2022-10-21T20:51:25.421Z,10.03
2022-10-21T20:53:56.830Z,9.98
2022-10-21T20:56:28.005Z,9.98
2022-10-21T20:58:56.664Z,9.89
2022-10-21T21:01:28.189Z,9.89
2022-10-21T21:03:58.268Z,9.84
2022-10-21T21:06:27.478Z,9.68
2022-10-21T21:09:25.710Z,9.73
2022-10-21T21:11:43.547Z,9.52
2022-10-21T21:14:11.674Z,9.36
2022-10-21T21:16:41.222Z,9.44
2022-10-21T21:19:12.334Z,9.47
2022-10-21T21:21:41.018Z,9.46
2022-10-21T21:24:09.304Z,9.47
2022-10-21T21:26:39.603Z,9.44
2022-10-21T21:29:09.895Z,9.54
2022-10-21T21:31:40.782Z,9.44
2022-10-21T21:34:09.474Z,9.48
2022-10-21T21:36:37.949Z,9.53
2022-10-21T21:39:06.853Z,9.33
2022-10-21T21:41:36.533Z,9.45
2022-10-21T21:44:06.384Z,9.49
2022-10-21T21:46:34.590Z,9.45
2022-10-21T21:49:06.366Z,9.32
2022-10-21T21:51:36.145Z,9.24
2022-10-21T21:54:07.830Z,9.03
2022-10-21T21:56:36.177Z,8.73
2022-10-21T21:59:04.253Z,8.57
2022-10-21T22:01:32.391Z,8.10
2022-10-21T22:04:02.075Z,7.79
2022-10-21T22:06:33.340Z,7.72
2022-10-21T22:09:02.345Z,7.49
2022-10-21T22:11:32.357Z,7.48
2022-10-21T22:14:00.844Z,7.21
2022-10-21T22:16:30.417Z,7.53
2022-10-21T22:18:59.983Z,7.57
2022-10-21T22:21:28.353Z,7.67
2022-10-21T22:23:57.884Z,7.61
2022-10-21T22:26:27.227Z,7.69
2022-10-21T22:28:55.855Z,7.69
2022-10-21T22:31:29.177Z,7.89
2022-10-21T22:33:59.532Z,8.19
2022-10-21T22:36:27.602Z,8.27
2022-10-21T22:38:55.617Z,8.36
2022-10-21T22:41:25.060Z,8.51
2022-10-21T22:43:53.087Z,8.59
2022-10-21T22:49:11.125Z,8.50
2022-10-21T22:51:39.249Z,8.18
2022-10-21T22:54:15.164Z,8.10
2022-10-21T22:56:48.997Z,8.04
2022-10-21T22:59:17.069Z,7.99
2022-10-21T23:01:45.150Z,7.88
2022-10-21T23:04:13.217Z,7.93
2022-10-21T23:06:42.306Z,8.01
2022-10-21T23:09:10.359Z,7.95
2022-10-21T23:11:38.546Z,7.91
2022-10-21T23:14:09.639Z,7.90
2022-10-21T23:16:38.647Z,7.81
2022-10-21T23:19:08.692Z,7.85
2022-10-21T23:21:37.494Z,7.71
2022-10-21T23:24:06.647Z,7.60
2022-10-21T23:26:35.877Z,7.62
2022-10-21T23:29:04.304Z,7.51
2022-10-21T23:31:33.893Z,7.54
2022-10-21T23:34:03.185Z,7.49
2022-10-21T23:36:31.358Z,7.34
2022-10-21T23:38:59.578Z,7.32
2022-10-21T23:41:27.938Z,7.29
2022-10-21T23:43:56.165Z,7.37
2022-10-21T23:46:25.377Z,7.33
2022-10-21T23:48:54.884Z,7.21
2022-10-21T23:51:23.109Z,7.14
2022-10-21T23:53:51.188Z,6.95
2022-10-21T23:56:19.254Z,6.77
2022-10-21T23:58:47.326Z,7.04
